Time;durP1;ratioP1;P1;durP2;ratioP2;P2;SDS_P1;SDS_P2;PMS_P1;PMS_P2;Temp;Humidity;BMP_temperature;BMP_pressure;BME280_temperature;BME280_humidity;BME280_pressure;Samples;Min_cycle;Max_cycle;Signal;HPM_P1;HPM_P2
2021/04/28 00:00:20;;;;;;;9.48;3.42;;;12.00;52.20;;;;;;5031431;28;20060;-80
2021/04/28 00:02:45;;;;;;;6.35;3.22;;;9.80;51.30;;;;;;5039903;28;20055;-79
2021/04/28 00:05:14;;;;;;;7.80;4.00;;;11.80;52.50;;;;;;5030947;28;20526;-80
2021/04/28 00:07:39;;;;;;;7.72;3.72;;;9.80;51.80;;;;;;5033713;28;20024;-81
2021/04/28 00:10:07;;;;;;;8.45;3.88;;;9.80;51.80;;;;;;5037388;28;20096;-81
2021/04/28 00:12:33;;;;;;;6.90;3.45;;;9.80;52.00;;;;;;5044252;28;20037;-84
2021/04/28 00:14:58;;;;;;;6.07;3.30;;;9.80;52.80;;;;;;5033409;28;20347;-82
2021/04/28 00:17:25;;;;;;;6.70;2.92;;;9.70;51.80;;;;;;5026988;28;20125;-84
2021/04/28 00:19:50;;;;;;;6.40;3.42;;;10.50;52.90;;;;;;5048617;28;20068;-84
2021/04/28 00:22:16;;;;;;;7.35;3.40;;;9.80;52.40;;;;;;5027439;28;20033;-79
2021/04/28 00:24:42;;;;;;;8.52;3.65;;;9.70;52.10;;;;;;5046505;28;20025;-84
2021/04/28 00:27:07;;;;;;;6.95;3.40;;;9.70;52.10;;;;;;5033582;28;21233;-85
2021/04/28 00:29:33;;;;;;;7.75;3.47;;;;;;;;;;5032725;28;20029;-81
2021/04/28 00:31:59;;;;;;;5.72;3.50;;;9.70;52.30;;;;;;5025565;28;20671;-81
2021/04/28 00:34:25;;;;;;;7.03;3.50;;;9.70;52.90;;;;;;5028713;28;20037;-81
2021/04/28 00:36:50;;;;;;;7.70;3.42;;;9.70;52.50;;;;;;5042439;28;20470;-81
2021/04/28 00:39:16;;;;;;;14.40;3.50;;;9.70;53.70;;;;;;5022753;28;20030;-81
2021/04/28 00:41:43;;;;;;;5.90;3.53;;;9.60;52.40;;;;;;5025115;28;20056;-80
2021/04/28 00:44:09;;;;;;;6.55;3.50;;;9.60;52.80;;;;;;5023126;28;20041;-81
2021/04/28 00:46:35;;;;;;;7.90;3.20;;;10.30;53.20;;;;;;5023418;28;20059;-80
2021/04/28 00:49:00;;;;;;;7.35;4.20;;;8.60;53.00;;;;;;5018805;28;20499;-79
2021/04/28 00:51:26;;;;;;;11.88;3.60;;;9.60;53.10;;;;;;5025281;28;20024;-80
2021/04/28 00:53:56;;;;;;;8.57;3.88;;;9.50;53.10;;;;;;5022391;28;20029;-82
2021/04/28 00:56:22;;;;;;;7.22;3.80;;;9.50;53.30;;;;;;5036789;28;20030;-81
2021/04/28 00:58:48;;;;;;;5.97;3.47;;;9.50;53.70;;;;;;5033176;28;20036;-80
2021/04/28 01:01:13;;;;;;;9.52;3.65;;;9.50;53.70;;;;;;5036628;28;20037;-78
2021/04/28 01:03:40;;;;;;;8.32;3.45;;;9.40;53.80;;;;;;5032061;28;20037;-81
2021/04/28 01:06:08;;;;;;;6.55;3.50;;;9.90;54.20;;;;;;5042058;28;20025;-82
2021/04/28 01:08:34;;;;;;;6.03;3.65;;;;;;;;;;5024604;28;20076;-81
2021/04/28 01:11:03;;;;;;;5.85;3.50;;;;;;;;;;5026201;28;20045;-83
2021/04/28 01:13:29;;;;;;;7.65;3.83;;;9.40;54.00;;;;;;5027775;28;20088;-81
2021/04/28 01:15:55;;;;;;;7.40;4.00;;;10.00;55.20;;;;;;5051339;28;20088;-84
2021/04/28 01:18:23;;;;;;;8.10;3.53;;;9.20;54.60;;;;;;5022368;28;20542;-80
2021/04/28 01:20:49;;;;;;;5.15;3.40;;;9.20;54.50;;;;;;5020416;28;20033;-80
2021/04/28 01:23:16;;;;;;;9.52;3.45;;;9.20;55.30;;;;;;5028026;28;20025;-81
2021/04/28 01:25:42;;;;;;;9.95;3.17;;;9.30;54.90;;;;;;5042798;28;20044;-81
2021/04/28 01:28:19;;;;;;;8.00;3.92;;;9.00;55.30;;;;;;5037717;28;20057;-82
2021/04/28 01:31:00;;;;;;;7.47;3.92;;;9.00;55.50;;;;;;5026556;28;20695;-79
2021/04/28 01:33:32;;;;;;;6.97;3.28;;;8.90;55.40;;;;;;5035300;28;20505;-82
2021/04/28 01:35:59;;;;;;;7.00;3.42;;;8.70;55.50;;;;;;5043697;28;20063;-81
2021/04/28 01:38:36;;;;;;;5.85;3.22;;;11.10;57.60;;;;;;5032611;28;20513;-82
2021/04/28 01:41:02;;;;;;;7.38;3.55;;;;;;;;;;5033625;28;20504;-79
2021/04/28 01:43:29;;;;;;;6.28;3.55;;;8.60;56.20;;;;;;5053782;28;20137;-80
2021/04/28 01:45:55;;;;;;;5.45;3.42;;;11.50;58.20;;;;;;5031995;28;20033;-83
2021/04/28 01:48:21;;;;;;;7.03;3.42;;;8.50;57.20;;;;;;5052872;28;20093;-79
2021/04/28 01:50:49;;;;;;;8.70;3.72;;;8.50;57.40;;;;;;5030406;28;20053;-79
2021/04/28 01:53:17;;;;;;;7.53;3.50;;;8.40;57.80;;;;;;5038180;28;20474;-81
2021/04/28 01:55:44;;;;;;;8.55;3.47;;;8.40;57.90;;;;;;5042797;28;20017;-81
2021/04/28 01:58:11;;;;;;;6.47;3.50;;;8.30;58.10;;;;;;5036483;28;20033;-81
2021/04/28 02:00:39;;;;;;;5.63;3.15;;;8.30;58.60;;;;;;5028321;28;20087;-77
2021/04/28 02:03:05;;;;;;;6.97;3.50;;;8.20;58.60;;;;;;5030143;28;20053;-84
2021/04/28 02:05:32;;;;;;;5.72;3.22;;;8.20;58.70;;;;;;5038108;28;20025;-77
2021/04/28 02:07:57;;;;;;;7.53;3.35;;;8.10;58.90;;;;;;5038709;28;20032;-81
2021/04/28 02:10:23;;;;;;;6.45;3.30;;;8.10;59.00;;;;;;5052511;28;20076;-80
2021/04/28 02:12:50;;;;;;;8.18;3.40;;;8.00;59.30;;;;;;5037212;28;20067;-79
2021/04/28 02:15:18;;;;;;;5.57;3.45;;;8.00;59.40;;;;;;5031664;28;20013;-77
2021/04/28 02:17:44;;;;;;;5.97;3.40;;;8.00;59.70;;;;;;5036942;28;20032;-80
2021/04/28 02:20:15;;;;;;;5.55;3.30;;;7.90;59.60;;;;;;5032574;28;20038;-82
2021/04/28 02:22:42;;;;;;;9.00;3.78;;;7.90;59.80;;;;;;5034376;28;20028;-83
2021/04/28 02:25:10;;;;;;;8.55;3.50;;;;;;;;;;5037417;28;20045;-83
2021/04/28 02:27:37;;;;;;;8.05;3.50;;;7.90;59.70;;;;;;5046003;28;20037;-79
2021/04/28 02:30:08;;;;;;;7.05;3.42;;;7.70;60.10;;;;;;5033833;28;20069;-83
2021/04/28 02:32:37;;;;;;;6.30;3.83;;;7.80;60.30;;;;;;5043977;28;20085;-79
2021/04/28 02:35:04;;;;;;;6.70;3.90;;;7.80;60.60;;;;;;5052720;28;20376;-84
2021/04/28 02:37:30;;;;;;;8.32;3.83;;;7.70;60.80;;;;;;5045787;28;20029;-81
2021/04/28 02:40:06;;;;;;;7.38;3.30;;;7.70;61.20;;;;;;5036712;28;20768;-81
2021/04/28 02:42:32;;;;;;;8.20;3.35;;;7.60;61.80;;;;;;5039476;28;20092;-78
2021/04/28 02:45:00;;;;;;;7.85;3.40;;;7.60;62.10;;;;;;5049050;28;20032;-84
2021/04/28 02:47:29;;;;;;;6.45;3.35;;;7.50;62.30;;;;;;5035639;28;20088;-79
2021/04/28 02:49:55;;;;;;;7.10;3.70;;;7.50;62.40;;;;;;5049316;28;20017;-84
2021/04/28 02:52:23;;;;;;;5.80;3.40;;;7.50;62.90;;;;;;5037846;28;20020;-81
2021/04/28 02:54:50;;;;;;;7.35;3.60;;;7.40;63.20;;;;;;5034823;28;20079;-82
2021/04/28 02:57:17;;;;;;;6.13;3.40;;;7.50;63.70;;;;;;5027796;28;20025;-82
2021/04/28 02:59:43;;;;;;;9.38;3.70;;;7.40;63.70;;;;;;5037146;28;20028;-79
2021/04/28 03:02:09;;;;;;;6.70;3.60;;;7.30;63.90;;;;;;5034526;28;20387;-78
2021/04/28 03:04:39;;;;;;;6.47;3.60;;;7.30;64.10;;;;;;5045521;28;20030;-78
2021/04/28 03:07:05;;;;;;;7.90;3.30;;;7.60;64.10;;;;;;5052114;28;20388;-82
2021/04/28 03:09:33;;;;;;;9.07;3.72;;;7.30;64.20;;;;;;5037226;28;20025;-83
2021/04/28 03:11:59;;;;;;;5.07;3.28;;;7.30;64.30;;;;;;5049587;28;20031;-81
2021/04/28 03:14:25;;;;;;;6.43;3.53;;;7.20;64.60;;;;;;5038740;28;20108;-80
2021/04/28 03:16:51;;;;;;;5.30;3.65;;;7.20;65.00;;;;;;5034474;28;20033;-84
2021/04/28 03:19:17;;;;;;;6.15;3.70;;;7.20;65.40;;;;;;5033969;28;20044;-83
2021/04/28 03:21:46;;;;;;;6.25;3.40;;;8.50;66.30;;;;;;5031456;28;20029;-82
2021/04/28 03:24:12;;;;;;;5.90;3.50;;;10.10;67.20;;;;;;5031543;28;20025;-82
2021/04/28 03:26:41;;;;;;;5.68;3.40;;;7.20;65.40;;;;;;5035727;28;20025;-80
2021/04/28 03:29:07;;;;;;;6.40;3.80;;;7.10;65.60;;;;;;5036895;28;20053;-80
2021/04/28 03:31:33;;;;;;;6.85;4.03;;;7.10;65.70;;;;;;5037257;28;20017;-81
2021/04/28 03:33:59;;;;;;;6.70;3.95;;;7.10;66.20;;;;;;5032282;28;20024;-82
2021/04/28 03:36:25;;;;;;;6.65;3.55;;;8.40;67.10;;;;;;5031869;28;20105;-78
2021/04/28 03:38:51;;;;;;;7.32;3.90;;;7.00;66.50;;;;;;5030106;28;20037;-84
2021/04/28 03:41:17;;;;;;;6.90;3.63;;;7.00;66.80;;;;;;5035038;28;20113;-82
2021/04/28 03:43:43;;;;;;;9.40;4.20;;;;;;;;;;5036605;28;20040;-80
2021/04/28 03:46:09;;;;;;;10.18;4.20;;;;;;;;;;5032761;28;20096;-82
2021/04/28 03:48:36;;;;;;;8.05;3.80;;;6.90;67.10;;;;;;5048848;28;20029;-81
2021/04/28 03:51:02;;;;;;;6.82;4.05;;;6.90;67.40;;;;;;5033659;28;20496;-80
2021/04/28 03:53:28;;;;;;;9.60;3.40;;;6.90;67.80;;;;;;5032150;28;20040;-81
2021/04/28 03:55:56;;;;;;;7.55;4.03;;;6.90;68.00;;;;;;5038216;28;20092;-83
2021/04/28 03:58:22;;;;;;;6.90;3.60;;;6.90;68.30;;;;;;5044421;28;20926;-85
2021/04/28 04:00:48;;;;;;;7.40;3.60;;;6.90;68.50;;;;;;5029695;28;20037;-83
2021/04/28 04:03:14;;;;;;;10.75;4.30;;;6.80;68.90;;;;;;5028625;28;20112;-84
2021/04/28 04:05:40;;;;;;;7.40;4.43;;;6.80;69.20;;;;;;5033750;28;20037;-80
2021/04/28 04:08:06;;;;;;;8.90;4.07;;;6.80;69.60;;;;;;5053055;28;20055;-83
2021/04/28 04:10:31;;;;;;;7.25;4.13;;;6.80;70.00;;;;;;5037927;28;20029;-80
2021/04/28 04:12:57;;;;;;;6.93;4.18;;;6.80;70.40;;;;;;5040321;28;20043;-83
2021/04/28 04:15:23;;;;;;;9.00;4.57;;;7.50;70.80;;;;;;5046117;28;20029;-84
2021/04/28 04:17:48;;;;;;;11.80;4.63;;;6.70;70.70;;;;;;5060818;28;20036;-83
2021/04/28 04:20:14;;;;;;;8.80;4.28;;;9.70;72.50;;;;;;5050956;28;20510;-81
2021/04/28 04:22:40;;;;;;;9.60;4.18;;;;;;;;;;5061749;28;20032;-79
2021/04/28 04:25:07;;;;;;;11.50;4.20;;;6.70;70.60;;;;;;5061237;28;20028;-79
2021/04/28 04:27:34;;;;;;;9.63;4.55;;;6.60;71.40;;;;;;5045799;28;20101;-81
2021/04/28 04:30:01;;;;;;;8.75;4.70;;;8.80;72.70;;;;;;5048114;28;20029;-84
2021/04/28 04:32:26;;;;;;;9.80;4.35;;;9.90;73.50;;;;;;5062499;28;20021;-81
2021/04/28 04:34:52;;;;;;;7.18;4.20;;;8.80;72.70;;;;;;5044710;28;20093;-80
2021/04/28 04:37:18;;;;;;;11.15;4.88;;;6.60;71.30;;;;;;5039352;28;20030;-82
2021/04/28 04:39:43;;;;;;;7.75;4.60;;;6.60;71.00;;;;;;5040028;28;20048;-81
2021/04/28 04:42:10;;;;;;;7.57;4.40;;;6.60;71.50;;;;;;5038393;28;20029;-78
2021/04/28 04:44:36;;;;;;;8.43;4.97;;;6.60;71.80;;;;;;5039957;28;20032;-78
2021/04/28 04:47:02;;;;;;;7.97;4.32;;;7.60;72.10;;;;;;5031776;28;20021;-83
2021/04/28 04:49:29;;;;;;;7.82;4.38;;;6.60;71.60;;;;;;5043758;28;20021;-83
2021/04/28 04:51:54;;;;;;;8.88;4.70;;;6.60;71.70;;;;;;5035217;28;20104;-83
2021/04/28 04:54:20;;;;;;;10.02;4.93;;;8.20;73.80;;;;;;5043707;28;20479;-79
2021/04/28 04:56:46;;;;;;;8.48;5.07;;;;;;;;;;5052658;28;20057;-81
2021/04/28 04:59:11;;;;;;;11.70;5.38;;;6.50;72.00;;;;;;5049563;28;20026;-80
2021/04/28 05:01:37;;;;;;;11.35;5.45;;;6.50;73.00;;;;;;5045333;28;20036;-79
2021/04/28 05:04:03;;;;;;;12.60;5.38;;;6.80;73.10;;;;;;5045794;28;20052;-77
2021/04/28 05:06:29;;;;;;;9.75;4.95;;;6.60;73.50;;;;;;5042361;28;20036;-82
2021/04/28 05:08:55;;;;;;;8.23;4.82;;;7.70;73.70;;;;;;5044915;28;20025;-80
2021/04/28 05:11:21;;;;;;;10.38;4.82;;;;;;;;;;5040136;28;20029;-80
2021/04/28 05:13:46;;;;;;;8.43;4.38;;;6.50;73.10;;;;;;5058067;28;20591;-79
2021/04/28 05:16:14;;;;;;;11.38;4.50;;;6.50;73.80;;;;;;5045305;28;20049;-79
2021/04/28 05:18:40;;;;;;;7.05;4.50;;;6.60;73.60;;;;;;5050999;28;20687;-79
2021/04/28 05:21:06;;;;;;;7.78;4.03;;;6.60;73.00;;;;;;5040749;28;20132;-78
2021/04/28 05:23:31;;;;;;;8.63;4.10;;;6.60;73.80;;;;;;5038299;28;20032;-79
2021/04/28 05:25:57;;;;;;;7.90;4.40;;;6.70;72.70;;;;;;5038913;28;20307;-79
2021/04/28 05:28:23;;;;;;;10.57;4.93;;;6.70;73.30;;;;;;5037777;28;20064;-80
2021/04/28 05:30:48;;;;;;;9.63;4.82;;;6.60;73.00;;;;;;5055468;28;20108;-81
2021/04/28 05:33:14;;;;;;;9.65;4.70;;;;;;;;;;5038953;28;20072;-80
2021/04/28 05:35:40;;;;;;;7.82;4.25;;;6.90;72.60;;;;;;5051984;28;20434;-80
2021/04/28 05:38:05;;;;;;;10.55;4.75;;;6.90;72.90;;;;;;5025340;28;20034;-82
2021/04/28 05:40:31;;;;;;;13.48;4.55;;;7.10;72.80;;;;;;5040003;28;20021;-79
2021/04/28 05:42:56;;;;;;;7.60;4.57;;;7.20;72.20;;;;;;5029364;28;20035;-79
2021/04/28 05:45:22;;;;;;;7.85;4.82;;;8.70;72.20;;;;;;5026333;28;20360;-79
2021/04/28 05:47:50;;;;;;;9.25;4.70;;;9.00;71.00;;;;;;5025394;28;20047;-79
2021/04/28 05:50:17;;;;;;;9.93;4.18;;;8.10;67.60;;;;;;5048619;28;20085;-80
2021/04/28 05:52:43;;;;;;;11.07;4.88;;;;;;;;;;5039500;28;20029;-79
2021/04/28 05:55:12;;;;;;;9.50;4.72;;;8.30;66.60;;;;;;5024076;28;20260;-82
2021/04/28 05:57:38;;;;;;;10.13;4.93;;;8.40;66.30;;;;;;5027109;28;20033;-81
2021/04/28 06:00:10;;;;;;;7.57;4.93;;;8.60;65.30;;;;;;5035970;28;20479;-77
2021/04/28 06:02:36;;;;;;;10.73;4.50;;;;;;;;;;5028206;28;20510;-82
2021/04/28 06:05:03;;;;;;;8.68;5.07;;;8.80;63.90;;;;;;5042937;28;20029;-79
2021/04/28 06:07:28;;;;;;;16.80;5.68;;;8.80;65.00;;;;;;5032257;28;20033;-80
2021/04/28 06:09:54;;;;;;;15.02;5.30;;;;;;;;;;5044946;28;20101;-83
2021/04/28 06:12:20;;;;;;;13.32;5.30;;;8.80;64.60;;;;;;5047179;28;20049;-78
2021/04/28 06:14:48;;;;;;;13.75;5.10;;;9.40;65.10;;;;;;5023414;28;20509;-82
2021/04/28 06:17:14;;;;;;;10.10;4.65;;;11.10;66.30;;;;;;5043994;28;20064;-80
2021/04/28 06:19:39;;;;;;;15.35;5.88;;;9.00;64.50;;;;;;5049262;28;20041;-78
2021/04/28 06:22:06;;;;;;;19.17;5.82;;;;;;;;;;5039685;28;20039;-80
2021/04/28 06:24:31;;;;;;;14.80;5.55;;;9.20;62.90;;;;;;5037935;28;20172;-79
2021/04/28 06:26:57;;;;;;;13.15;6.10;;;9.30;63.10;;;;;;5029361;28;21360;-80
2021/04/28 06:29:23;;;;;;;13.60;6.55;;;9.30;62.60;;;;;;5033767;28;20104;-81
2021/04/28 06:31:49;;;;;;;17.23;6.47;;;11.50;63.90;;;;;;5034554;28;20056;-77
2021/04/28 06:34:14;;;;;;;12.77;6.60;;;11.50;62.60;;;;;;5049390;28;20028;-83
2021/04/28 06:36:40;;;;;;;16.85;6.20;;;9.70;61.40;;;;;;5051060;28;20029;-83
2021/04/28 06:39:06;;;;;;;13.27;6.25;;;9.80;61.10;;;;;;5050215;28;20028;-79
2021/04/28 06:41:32;;;;;;;16.25;6.63;;;;;;;;;;5022384;28;20039;-80
2021/04/28 06:43:58;;;;;;;18.05;6.97;;;;;;;;;;5030505;28;20051;-79
2021/04/28 06:46:23;;;;;;;14.82;6.70;;;10.10;59.20;;;;;;5029180;28;20034;-78
2021/04/28 06:48:51;;;;;;;20.10;6.57;;;10.30;59.20;;;;;;5042545;28;20037;-81
2021/04/28 06:51:17;;;;;;;17.90;6.40;;;11.40;59.60;;;;;;5042361;28;20067;-81
2021/04/28 06:53:43;;;;;;;16.05;6.90;;;11.40;59.70;;;;;;5022860;28;20043;-78
2021/04/28 06:56:08;;;;;;;14.80;5.63;;;10.70;58.40;;;;;;5019773;28;20025;-82
2021/04/28 06:58:34;;;;;;;9.55;5.90;;;;;;;;;;5017447;28;20021;-81
2021/04/28 07:01:00;;;;;;;17.52;5.88;;;10.90;56.60;;;;;;5034107;28;20056;-79
2021/04/28 07:03:26;;;;;;;12.27;5.80;;;12.90;57.60;;;;;;5017826;28;20048;-79
2021/04/28 07:05:52;;;;;;;11.48;5.93;;;11.00;56.40;;;;;;5021586;28;20086;-79
2021/04/28 07:08:18;;;;;;;10.75;5.97;;;11.10;55.70;;;;;;5018410;28;20021;-81
2021/04/28 07:10:43;;;;;;;15.30;6.15;;;11.40;55.30;;;;;;5016839;28;20120;-78
2021/04/28 07:13:09;;;;;;;10.07;6.13;;;;;;;;;;5020299;28;20036;-79
2021/04/28 07:15:35;;;;;;;13.73;5.78;;;11.60;54.10;;;;;;5035920;28;20055;-78
2021/04/28 07:18:02;;;;;;;12.13;5.85;;;11.80;54.30;;;;;;5020092;28;20053;-80
2021/04/28 07:20:28;;;;;;;9.45;5.28;;;12.60;53.70;;;;;;5035771;28;20027;-81
2021/04/28 07:22:54;;;;;;;12.68;6.03;;;;;;;;;;5020013;28;20053;-78
2021/04/28 07:25:20;;;;;;;9.93;5.40;;;12.30;53.30;;;;;;5019086;28;20073;-79
2021/04/28 07:27:47;;;;;;;11.63;6.10;;;13.30;52.40;;;;;;5018000;28;20037;-79
2021/04/28 07:30:17;;;;;;;10.77;5.88;;;13.50;52.40;;;;;;5030886;28;20024;-80
2021/04/28 07:32:43;;;;;;;7.70;5.30;;;12.80;51.20;;;;;;5013885;28;20128;-77
2021/04/28 07:35:11;;;;;;;11.25;5.47;;;12.90;50.30;;;;;;5032303;28;20120;-77
2021/04/28 07:37:38;;;;;;;11.23;5.82;;;13.10;50.50;;;;;;5017179;28;20125;-78
2021/04/28 07:40:05;;;;;;;11.88;5.47;;;13.30;50.00;;;;;;5015601;28;20025;-78
2021/04/28 07:42:31;;;;;;;10.45;5.63;;;13.40;50.00;;;;;;5028952;28;20021;-79
2021/04/28 07:44:57;;;;;;;15.77;5.60;;;13.60;49.40;;;;;;5012574;28;20092;-75
2021/04/28 07:47:26;;;;;;;8.57;5.32;;;;;;;;;;5028873;28;20172;-79
2021/04/28 07:49:51;;;;;;;9.73;5.88;;;13.70;48.70;;;;;;5016820;28;20116;-78
2021/04/28 07:52:17;;;;;;;11.43;6.50;;;14.70;49.30;;;;;;5014279;28;20171;-78
2021/04/28 07:54:43;;;;;;;10.10;6.30;;;15.00;48.70;;;;;;5014818;28;20029;-79
2021/04/28 07:57:08;;;;;;;11.75;5.90;;;14.50;48.60;;;;;;5036373;28;20025;-77
2021/04/28 07:59:35;;;;;;;11.85;5.72;;;14.90;48.50;;;;;;5012805;28;20291;-76
2021/04/28 08:02:03;;;;;;;11.07;5.95;;;14.00;48.20;;;;;;5032264;28;20083;-78
2021/04/28 08:04:28;;;;;;;11.48;6.32;;;14.10;48.60;;;;;;5034315;28;20033;-81
2021/04/28 08:06:54;;;;;;;13.05;6.47;;;14.20;48.10;;;;;;5025372;28;20025;-78
2021/04/28 08:09:20;;;;;;;13.13;6.60;;;;;;;;;;5019513;28;20033;-80
2021/04/28 08:11:48;;;;;;;10.15;6.10;;;14.50;46.60;;;;;;5038068;28;20117;-80
2021/04/28 08:14:13;;;;;;;11.52;6.57;;;14.70;47.00;;;;;;5034111;28;20033;-81
2021/04/28 08:16:39;;;;;;;12.60;7.18;;;14.90;46.00;;;;;;5039330;28;20097;-79
2021/04/28 08:19:07;;;;;;;10.82;6.50;;;15.20;45.80;;;;;;5038468;28;20057;-80
2021/04/28 08:21:33;;;;;;;15.23;7.10;;;14.80;45.90;;;;;;5038833;28;20037;-80
2021/04/28 08:23:59;;;;;;;15.48;7.10;;;;;;;;;;5037597;28;20798;-78
2021/04/28 08:26:25;;;;;;;13.65;6.70;;;14.90;45.40;;;;;;5038755;28;20100;-81
2021/04/28 08:28:50;;;;;;;11.18;6.93;;;15.10;45.70;;;;;;5022702;28;20534;-79
2021/04/28 08:31:19;;;;;;;15.00;6.90;;;15.40;44.90;;;;;;5021580;28;20526;-79
2021/04/28 08:33:45;;;;;;;11.18;6.97;;;15.60;44.70;;;;;;5019118;28;20033;-79
2021/04/28 08:36:12;;;;;;;13.55;6.82;;;16.10;44.80;;;;;;5027987;28;20487;-77
2021/04/28 08:38:38;;;;;;;10.27;6.63;;;18.40;45.70;;;;;;5025470;28;20036;-78
2021/04/28 08:41:06;;;;;;;14.07;7.40;;;15.90;43.40;;;;;;5016347;28;20057;-81
2021/04/28 08:43:32;;;;;;;13.05;7.65;;;15.80;43.80;;;;;;5028238;28;20053;-81
2021/04/28 08:46:00;;;;;;;13.40;6.82;;;;;;;;;;5033086;28;20040;-80
2021/04/28 08:48:27;;;;;;;13.20;7.55;;;16.00;43.10;;;;;;5036773;28;20029;-80
2021/04/28 08:50:53;;;;;;;13.25;7.13;;;16.20;43.20;;;;;;5041583;28;20778;-84
2021/04/28 08:53:19;;;;;;;14.02;7.57;;;16.30;43.90;;;;;;5051657;28;20037;-79
2021/04/28 08:55:45;;;;;;;16.00;9.93;;;16.50;41.90;;;;;;5032071;28;20033;-80
2021/04/28 08:58:14;;;;;;;11.50;7.10;;;16.40;42.70;;;;;;5030712;28;20033;-80
2021/04/28 09:00:40;;;;;;;10.63;7.05;;;16.60;43.20;;;;;;5047289;28;20025;-79
2021/04/28 09:03:09;;;;;;;11.60;6.85;;;16.80;42.80;;;;;;5053715;28;20025;-80
2021/04/28 09:05:35;;;;;;;10.07;6.88;;;17.20;42.80;;;;;;5038032;28;20030;-80
2021/04/28 09:08:08;;;;;;;14.80;7.40;;;17.10;42.60;;;;;;5025040;28;20029;-80
2021/04/28 09:10:34;;;;;;;10.30;7.05;;;17.20;41.80;;;;;;5029037;28;20040;-81
2021/04/28 09:13:08;;;;;;;15.25;7.32;;;17.40;40.60;;;;;;5036005;28;20024;-81
2021/04/28 09:15:33;;;;;;;12.32;7.45;;;17.40;41.00;;;;;;5056452;28;20020;-80
2021/04/28 09:17:59;;;;;;;12.13;7.47;;;18.00;41.50;;;;;;5027487;28;20040;-79
2021/04/28 09:20:33;;;;;;;13.90;7.97;;;17.60;41.00;;;;;;5028864;28;20177;-79
2021/04/28 09:23:16;;;;;;;13.48;7.72;;;17.60;40.40;;;;;;5023533;28;20052;-81
2021/04/28 09:25:53;;;;;;;13.43;7.57;;;17.50;41.40;;;;;;5025075;28;20063;-81
2021/04/28 09:28:33;;;;;;;11.23;7.30;;;17.60;41.20;;;;;;5025905;28;20140;-77
2021/04/28 09:31:08;;;;;;;14.85;8.10;;;17.60;40.30;;;;;;5014129;28;20060;-79
2021/04/28 09:33:59;;;;;;;12.48;7.75;;;17.50;40.80;;;;;;5036549;28;20115;-79
2021/04/28 09:36:38;;;;;;;13.68;7.68;;;17.60;41.70;;;;;;5043495;28;20025;-77
2021/04/28 09:39:06;;;;;;;15.43;7.90;;;17.80;41.30;;;;;;5031803;28;20096;-80
2021/04/28 09:41:41;;;;;;;10.93;7.50;;;18.00;40.00;;;;;;5030415;28;20119;-80
2021/04/28 09:44:16;;;;;;;12.88;7.60;;;18.40;40.60;;;;;;5050725;28;20016;-81
2021/04/28 09:46:59;;;;;;;14.20;7.53;;;18.30;39.40;;;;;;5042199;28;20033;-81
2021/04/28 09:49:30;;;;;;;13.05;7.38;;;18.40;39.10;;;;;;5033415;28;20032;-76
2021/04/28 09:52:02;;;;;;;12.63;8.00;;;18.50;38.90;;;;;;5039655;28;20468;-77
2021/04/28 09:54:31;;;;;;;13.18;8.32;;;18.40;38.10;;;;;;5029480;28;20029;-81
2021/04/28 09:56:58;;;;;;;10.07;7.82;;;18.40;38.30;;;;;;5019807;28;20036;-80
2021/04/28 09:59:41;;;;;;;16.60;8.07;;;18.40;38.40;;;;;;5025640;28;20710;-77
2021/04/28 10:02:07;;;;;;;12.00;7.22;;;18.50;39.10;;;;;;5042766;28;20106;-81
2021/04/28 10:04:33;;;;;;;13.18;7.63;;;18.80;38.70;;;;;;5016630;28;20516;-81
2021/04/28 10:06:59;;;;;;;11.43;7.43;;;;;;;;;;5015406;28;20096;-80
2021/04/28 10:09:34;;;;;;;15.60;7.85;;;19.20;35.60;;;;;;5021407;28;20025;-79
2021/04/28 10:12:15;;;;;;;11.93;8.00;;;19.40;35.60;;;;;;5036053;28;20033;-76
2021/04/28 10:14:41;;;;;;;13.20;8.10;;;20.30;36.60;;;;;;5017995;28;20120;-78
2021/04/28 10:17:09;;;;;;;16.85;8.43;;;19.60;35.00;;;;;;5023015;28;20067;-80
2021/04/28 10:19:39;;;;;;;14.55;8.63;;;19.80;35.70;;;;;;5020826;28;20106;-82
2021/04/28 10:22:06;;;;;;;;;;;19.80;35.80;;;;;;5038137;28;20064;-80
2021/04/28 10:24:32;;;;;;;13.32;8.07;;;20.10;36.40;;;;;;5045863;28;19955;-80
2021/04/28 10:26:58;;;;;;;15.45;8.27;;;;;;;;;;5026256;28;20048;-80
2021/04/28 10:29:25;;;;;;;12.43;7.40;;;19.80;34.70;;;;;;5022594;28;20597;-80
2021/04/28 10:31:53;;;;;;;14.57;7.63;;;19.60;34.40;;;;;;5039598;28;20037;-81
2021/04/28 10:34:28;;;;;;;12.23;7.82;;;19.50;34.90;;;;;;5044366;28;20054;-79
2021/04/28 10:36:57;;;;;;;11.25;7.32;;;19.80;34.60;;;;;;5023953;28;20056;-79
2021/04/28 10:39:24;;;;;;;10.90;7.65;;;19.80;35.00;;;;;;5036041;28;20033;-78
2021/04/28 10:41:52;;;;;;;10.43;7.15;;;20.00;34.50;;;;;;5022387;28;20653;-78
2021/04/28 10:44:30;;;;;;;11.98;7.07;;;20.20;34.90;;;;;;5021097;28;20033;-80
2021/04/28 10:47:24;;;;;;;13.60;7.40;;;20.30;34.30;;;;;;5040549;28;20272;-79
2021/04/28 10:50:12;;;;;;;12.27;7.68;;;20.40;34.00;;;;;;5033578;28;20053;-77
2021/04/28 10:52:43;;;;;;;12.77;7.05;;;20.50;33.90;;;;;;5035186;28;20021;-77
2021/04/28 10:55:45;;;;;;;10.88;7.15;;;20.90;33.90;;;;;;5015412;28;20033;-79
2021/04/28 10:58:30;;;;;;;15.35;7.20;;;20.70;33.70;;;;;;5017468;28;20111;-82
2021/04/28 11:01:00;;;;;;;10.75;7.63;;;20.70;33.60;;;;;;5017961;28;20033;-79
2021/04/28 11:03:41;;;;;;;11.15;7.75;;;20.70;34.50;;;;;;5021120;28;20032;-79
2021/04/28 11:09:06;;;;;;;14.32;7.63;;;21.10;34.10;;;;;;5042405;28;20030;-83
2021/04/28 11:11:36;;;;;;;11.93;7.22;;;;;;;;;;5027926;28;20044;-83
2021/04/28 11:14:08;;;;;;;;;;;20.90;32.40;;;;;;5024683;28;20021;-79
2021/04/28 11:16:41;;;;;;;10.43;7.13;;;21.00;33.20;;;;;;5048472;28;19909;-79
2021/04/28 11:19:33;;;;;;;12.48;6.90;;;20.80;32.30;;;;;;5040852;28;20245;-82
2021/04/28 11:22:13;;;;;;;10.27;6.82;;;20.90;32.00;;;;;;5045981;28;20055;-77
2021/04/28 11:24:58;;;;;;;11.32;6.53;;;21.10;31.90;;;;;;5037108;28;20041;-79
2021/04/28 11:27:43;;;;;;;14.50;7.00;;;21.20;32.70;;;;;;5013254;28;20071;-80
2021/04/28 11:30:17;;;;;;;8.38;5.45;;;21.50;33.00;;;;;;5013192;28;20051;-80
2021/04/28 11:33:19;;;;;;;10.10;5.32;;;22.80;32.80;;;;;;5026480;28;20017;-82
2021/04/28 11:35:54;;;;;;;10.38;4.88;;;21.60;30.90;;;;;;5043991;28;20037;-81
2021/04/28 11:38:27;;;;;;;6.55;4.28;;;21.80;30.20;;;;;;5044323;28;20236;-81
2021/04/28 11:41:02;;;;;;;6.90;5.20;;;21.70;30.00;;;;;;5031899;28;20033;-78
2021/04/28 11:43:31;;;;;;;8.95;4.78;;;21.40;30.30;;;;;;5023458;28;20022;-80
2021/04/28 11:46:16;;;;;;;9.88;5.47;;;21.50;30.90;;;;;;5028462;28;20049;-83
2021/04/28 11:48:44;;;;;;;8.75;5.68;;;21.60;31.80;;;;;;5042839;28;20104;-84
2021/04/28 11:51:12;;;;;;;9.63;5.05;;;21.80;30.60;;;;;;5044606;28;20036;-80
2021/04/28 11:53:41;;;;;;;12.07;6.10;;;24.20;32.40;;;;;;5027304;28;20021;-78
2021/04/28 11:56:07;;;;;;;7.10;5.30;;;22.20;30.90;;;;;;5047799;28;20028;-80
2021/04/28 11:58:33;;;;;;;10.70;5.82;;;;;;;;;;5032351;28;20020;-80
2021/04/28 12:01:01;;;;;;;10.38;5.03;;;22.10;30.40;;;;;;5036244;28;20033;-81
2021/04/28 12:03:26;;;;;;;7.22;5.13;;;22.30;30.90;;;;;;5036703;28;20768;-82
2021/04/28 12:05:54;;;;;;;6.57;4.63;;;22.10;31.30;;;;;;5039437;28;20033;-80
2021/04/28 12:08:22;;;;;;;7.38;4.70;;;22.10;30.90;;;;;;5026484;28;20036;-77
2021/04/28 12:10:55;;;;;;;9.13;4.97;;;22.00;31.00;;;;;;5022657;28;20053;-81
2021/04/28 12:13:21;;;;;;;9.57;5.85;;;21.80;31.50;;;;;;5031518;28;20064;-80
2021/04/28 12:15:54;;;;;;;6.35;4.82;;;21.60;31.40;;;;;;5016538;28;20057;-78
2021/04/28 12:18:32;;;;;;;7.68;5.00;;;21.80;31.20;;;;;;5016453;28;20264;-78
2021/04/28 12:20:59;;;;;;;12.80;4.88;;;21.60;30.80;;;;;;5012349;28;20348;-76
2021/04/28 12:23:24;;;;;;;8.88;5.22;;;21.50;31.20;;;;;;5014915;28;20055;-79
2021/04/28 12:25:52;;;;;;;7.90;4.90;;;21.60;31.90;;;;;;5015121;28;20052;-79
2021/04/28 12:28:19;;;;;;;10.30;4.47;;;21.50;30.60;;;;;;5032021;28;20633;-78
2021/04/28 12:30:48;;;;;;;9.43;5.20;;;21.40;31.40;;;;;;5016526;28;20147;-76
2021/04/28 12:33:14;;;;;;;18.10;5.22;;;21.60;31.30;;;;;;5011225;28;20198;-75
2021/04/28 12:35:40;;;;;;;9.07;5.35;;;21.70;31.20;;;;;;5030416;28;20029;-79
2021/04/28 12:38:14;;;;;;;8.73;4.90;;;21.40;31.90;;;;;;5018485;28;20531;-78
2021/04/28 12:40:44;;;;;;;8.25;5.00;;;21.10;32.30;;;;;;5032595;28;20033;-79
2021/04/28 12:43:16;;;;;;;10.52;5.25;;;21.20;31.70;;;;;;5025114;28;20040;-79
2021/04/28 12:45:41;;;;;;;7.60;4.78;;;21.20;32.30;;;;;;5012005;28;20725;-79
2021/04/28 12:48:16;;;;;;;11.98;5.60;;;21.20;32.60;;;;;;5012688;28;20036;-78
2021/04/28 12:50:44;;;;;;;8.10;5.00;;;21.10;32.20;;;;;;5013896;28;20526;-76
2021/04/28 12:53:22;;;;;;;7.95;4.75;;;20.90;32.60;;;;;;5006262;28;20180;-79
2021/04/28 12:55:52;;;;;;;8.40;4.97;;;20.80;32.90;;;;;;5004987;28;20081;-77
2021/04/28 12:58:20;;;;;;;8.90;5.82;;;20.90;33.40;;;;;;5014724;28;20443;-80
2021/04/28 13:00:53;;;;;;;7.32;5.43;;;20.80;33.30;;;;;;5013961;28;21416;-79
2021/04/28 13:03:22;;;;;;;9.10;4.50;;;20.80;33.60;;;;;;5035213;28;20668;-77